sensor_id;sensor_type;location;lat;lon;timestamp;P1;durP1;ratioP1;P2;durP2;ratioP2
2061;SDS011;11070;51.336;12.340;2022-10-26T00:00:23;12.18;;;9.70;;
2061;SDS011;11070;51.336;12.340;2022-10-26T00:02:50;11.57;;;9.40;;
2061;SDS011;11070;51.336;12.340;2022-10-26T00:05:18;12.82;;;9.93;;
2061;SDS011;11070;51.336;12.340;2022-10-26T00:07:44;11.90;;;9.52;;
2061;SDS011;11070;51.336;12.340;2022-10-26T00:10:09;14.13;;;10.20;;
2061;SDS011;11070;51.336;12.340;2022-10-26T00:12:35;15.10;;;9.80;;
2061;SDS011;11070;51.336;12.340;2022-10-26T00:15:01;11.93;;;9.50;;
2061;SDS011;11070;51.336;12.340;2022-10-26T00:17:26;16.83;;;10.00;;
2061;SDS011;11070;51.336;12.340;2022-10-26T00:19:52;13.43;;;10.40;;
2061;SDS011;11070;51.336;12.340;2022-10-26T00:22:18;15.25;;;10.52;;
2061;SDS011;11070;51.336;12.340;2022-10-26T00:24:44;13.73;;;10.77;;
2061;SDS011;11070;51.336;12.340;2022-10-26T00:27:10;11.50;;;9.20;;
2061;SDS011;11070;51.336;12.340;2022-10-26T00:29:36;11.00;;;9.73;;
2061;SDS011;11070;51.336;12.340;2022-10-26T00:32:02;12.33;;;9.60;;
2061;SDS011;11070;51.336;12.340;2022-10-26T00:34:28;11.53;;;9.67;;
2061;SDS011;11070;51.336;12.340;2022-10-26T00:36:53;13.80;;;8.87;;
2061;SDS011;11070;51.336;12.340;2022-10-26T00:39:19;12.07;;;9.00;;
2061;SDS011;11070;51.336;12.340;2022-10-26T00:41:44;16.17;;;9.93;;
2061;SDS011;11070;51.336;12.340;2022-10-26T00:49:58;14.18;;;10.05;;
2061;SDS011;11070;51.336;12.340;2022-10-26T00:52:30;15.80;;;10.63;;
2061;SDS011;11070;51.336;12.340;2022-10-26T00:54:56;13.75;;;9.73;;
2061;SDS011;11070;51.336;12.340;2022-10-26T00:57:22;15.60;;;9.03;;
2061;SDS011;11070;51.336;12.340;2022-10-26T00:59:49;11.35;;;8.85;;
2061;SDS011;11070;51.336;12.340;2022-10-26T01:02:17;12.93;;;9.32;;
2061;SDS011;11070;51.336;12.340;2022-10-26T01:04:44;12.93;;;9.63;;
2061;SDS011;11070;51.336;12.340;2022-10-26T01:07:10;13.38;;;9.50;;
2061;SDS011;11070;51.336;12.340;2022-10-26T01:09:37;12.25;;;8.50;;
2061;SDS011;11070;51.336;12.340;2022-10-26T01:12:03;11.27;;;8.60;;
2061;SDS011;11070;51.336;12.340;2022-10-26T01:14:29;12.02;;;8.45;;
2061;SDS011;11070;51.336;12.340;2022-10-26T01:17:16;14.40;;;8.43;;
2061;SDS011;11070;51.336;12.340;2022-10-26T01:22:43;10.05;;;7.88;;
2061;SDS011;11070;51.336;12.340;2022-10-26T01:31:10;11.55;;;9.07;;
2061;SDS011;11070;51.336;12.340;2022-10-26T01:33:41;10.70;;;8.35;;
2061;SDS011;11070;51.336;12.340;2022-10-26T01:44:04;12.40;;;8.57;;
2061;SDS011;11070;51.336;12.340;2022-10-26T01:46:42;10.10;;;8.18;;
2061;SDS011;11070;51.336;12.340;2022-10-26T01:49:11;12.25;;;8.85;;
2061;SDS011;11070;51.336;12.340;2022-10-26T01:51:39;11.52;;;8.40;;
2061;SDS011;11070;51.336;12.340;2022-10-26T01:54:07;9.90;;;8.00;;
2061;SDS011;11070;51.336;12.340;2022-10-26T01:56:35;8.65;;;7.68;;
2061;SDS011;11070;51.336;12.340;2022-10-26T02:09:57;9.38;;;8.05;;
2061;SDS011;11070;51.336;12.340;2022-10-26T02:15:37;14.55;;;8.88;;
2061;SDS011;11070;51.336;12.340;2022-10-26T02:20:48;10.80;;;8.40;;
2061;SDS011;11070;51.336;12.340;2022-10-26T02:23:17;10.55;;;8.30;;
2061;SDS011;11070;51.336;12.340;2022-10-26T02:25:46;12.13;;;8.63;;
2061;SDS011;11070;51.336;12.340;2022-10-26T02:28:18;12.85;;;9.15;;
2061;SDS011;11070;51.336;12.340;2022-10-26T02:30:49;14.25;;;8.70;;
2061;SDS011;11070;51.336;12.340;2022-10-26T02:33:19;15.07;;;8.48;;
2061;SDS011;11070;51.336;12.340;2022-10-26T02:35:47;10.32;;;7.55;;
2061;SDS011;11070;51.336;12.340;2022-10-26T02:38:16;13.10;;;8.40;;
2061;SDS011;11070;51.336;12.340;2022-10-26T02:40:43;10.70;;;8.48;;
2061;SDS011;11070;51.336;12.340;2022-10-26T02:43:12;11.70;;;8.80;;
2061;SDS011;11070;51.336;12.340;2022-10-26T02:45:43;11.48;;;9.68;;
2061;SDS011;11070;51.336;12.340;2022-10-26T02:48:11;11.18;;;8.80;;
2061;SDS011;11070;51.336;12.340;2022-10-26T02:50:50;13.35;;;9.00;;
2061;SDS011;11070;51.336;12.340;2022-10-26T02:53:29;13.68;;;9.73;;
2061;SDS011;11070;51.336;12.340;2022-10-26T02:56:04;12.68;;;8.90;;
2061;SDS011;11070;51.336;12.340;2022-10-26T02:58:36;14.25;;;8.80;;
2061;SDS011;11070;51.336;12.340;2022-10-26T03:01:07;9.93;;;8.90;;
2061;SDS011;11070;51.336;12.340;2022-10-26T03:03:32;10.30;;;8.53;;
2061;SDS011;11070;51.336;12.340;2022-10-26T03:05:58;13.67;;;8.97;;
2061;SDS011;11070;51.336;12.340;2022-10-26T03:08:24;16.30;;;10.43;;
2061;SDS011;11070;51.336;12.340;2022-10-26T03:10:49;12.73;;;9.73;;
2061;SDS011;11070;51.336;12.340;2022-10-26T03:13:15;11.90;;;9.63;;
2061;SDS011;11070;51.336;12.340;2022-10-26T03:15:41;12.20;;;9.33;;
2061;SDS011;11070;51.336;12.340;2022-10-26T03:18:07;15.00;;;10.20;;
2061;SDS011;11070;51.336;12.340;2022-10-26T03:20:32;13.27;;;10.38;;
2061;SDS011;11070;51.336;12.340;2022-10-26T03:22:58;13.10;;;10.40;;
2061;SDS011;11070;51.336;12.340;2022-10-26T03:25:24;11.63;;;9.50;;
2061;SDS011;11070;51.336;12.340;2022-10-26T03:27:57;14.25;;;9.75;;
2061;SDS011;11070;51.336;12.340;2022-10-26T03:30:23;12.65;;;10.57;;
2061;SDS011;11070;51.336;12.340;2022-10-26T03:32:50;12.77;;;10.65;;
2061;SDS011;11070;51.336;12.340;2022-10-26T03:35:15;12.43;;;10.07;;
2061;SDS011;11070;51.336;12.340;2022-10-26T03:37:41;10.20;;;9.07;;
2061;SDS011;11070;51.336;12.340;2022-10-26T03:40:07;12.03;;;9.47;;
2061;SDS011;11070;51.336;12.340;2022-10-26T03:42:35;12.68;;;9.38;;
2061;SDS011;11070;51.336;12.340;2022-10-26T03:45:00;11.48;;;9.65;;
2061;SDS011;11070;51.336;12.340;2022-10-26T03:47:26;13.35;;;10.63;;
2061;SDS011;11070;51.336;12.340;2022-10-26T03:49:52;12.10;;;9.17;;
2061;SDS011;11070;51.336;12.340;2022-10-26T03:52:18;12.47;;;10.60;;
2061;SDS011;11070;51.336;12.340;2022-10-26T03:54:43;11.07;;;9.87;;
2061;SDS011;11070;51.336;12.340;2022-10-26T03:57:09;12.30;;;10.10;;
2061;SDS011;11070;51.336;12.340;2022-10-26T03:59:34;14.47;;;9.80;;
2061;SDS011;11070;51.336;12.340;2022-10-26T04:02:01;12.60;;;10.52;;
2061;SDS011;11070;51.336;12.340;2022-10-26T04:04:27;14.40;;;10.33;;
2061;SDS011;11070;51.336;12.340;2022-10-26T04:06:52;12.20;;;10.27;;
2061;SDS011;11070;51.336;12.340;2022-10-26T04:09:18;11.97;;;10.10;;
2061;SDS011;11070;51.336;12.340;2022-10-26T04:11:43;14.50;;;10.37;;
2061;SDS011;11070;51.336;12.340;2022-10-26T04:14:09;13.73;;;10.97;;
2061;SDS011;11070;51.336;12.340;2022-10-26T04:16:35;12.47;;;10.40;;
2061;SDS011;11070;51.336;12.340;2022-10-26T04:19:00;12.07;;;9.40;;
2061;SDS011;11070;51.336;12.340;2022-10-26T04:21:26;11.80;;;9.50;;
2061;SDS011;11070;51.336;12.340;2022-10-26T04:23:51;16.13;;;9.40;;
2061;SDS011;11070;51.336;12.340;2022-10-26T04:26:17;11.60;;;9.67;;
2061;SDS011;11070;51.336;12.340;2022-10-26T04:28:43;14.47;;;9.63;;
2061;SDS011;11070;51.336;12.340;2022-10-26T04:31:08;13.83;;;8.70;;
2061;SDS011;11070;51.336;12.340;2022-10-26T04:33:34;11.50;;;9.47;;
2061;SDS011;11070;51.336;12.340;2022-10-26T04:35:59;13.80;;;8.80;;
2061;SDS011;11070;51.336;12.340;2022-10-26T04:38:25;11.17;;;9.70;;
2061;SDS011;11070;51.336;12.340;2022-10-26T04:40:51;13.80;;;10.00;;
2061;SDS011;11070;51.336;12.340;2022-10-26T04:43:17;14.30;;;10.03;;
2061;SDS011;11070;51.336;12.340;2022-10-26T04:45:43;12.03;;;9.93;;
2061;SDS011;11070;51.336;12.340;2022-10-26T04:48:09;14.63;;;10.13;;
2061;SDS011;11070;51.336;12.340;2022-10-26T04:50:36;12.07;;;9.55;;
2061;SDS011;11070;51.336;12.340;2022-10-26T04:53:02;10.80;;;9.25;;
2061;SDS011;11070;51.336;12.340;2022-10-26T04:55:29;12.35;;;9.57;;
2061;SDS011;11070;51.336;12.340;2022-10-26T04:57:55;12.97;;;9.40;;
2061;SDS011;11070;51.336;12.340;2022-10-26T05:00:21;12.57;;;9.17;;
2061;SDS011;11070;51.336;12.340;2022-10-26T05:02:47;12.93;;;9.20;;
2061;SDS011;11070;51.336;12.340;2022-10-26T05:05:12;10.10;;;8.50;;
2061;SDS011;11070;51.336;12.340;2022-10-26T05:07:38;10.53;;;8.10;;
2061;SDS011;11070;51.336;12.340;2022-10-26T05:10:04;11.40;;;8.80;;
2061;SDS011;11070;51.336;12.340;2022-10-26T05:12:30;9.98;;;8.43;;
2061;SDS011;11070;51.336;12.340;2022-10-26T05:14:55;12.30;;;8.33;;
2061;SDS011;11070;51.336;12.340;2022-10-26T05:17:23;11.55;;;9.20;;
2061;SDS011;11070;51.336;12.340;2022-10-26T05:19:49;9.43;;;8.25;;
2061;SDS011;11070;51.336;12.340;2022-10-26T05:22:19;11.32;;;8.35;;
2061;SDS011;11070;51.336;12.340;2022-10-26T05:24:51;8.80;;;7.90;;
2061;SDS011;11070;51.336;12.340;2022-10-26T05:27:17;8.93;;;7.30;;
2061;SDS011;11070;51.336;12.340;2022-10-26T05:29:42;14.10;;;9.43;;
2061;SDS011;11070;51.336;12.340;2022-10-26T05:32:08;9.20;;;8.30;;
2061;SDS011;11070;51.336;12.340;2022-10-26T05:34:33;11.07;;;8.30;;
2061;SDS011;11070;51.336;12.340;2022-10-26T05:36:59;8.63;;;7.73;;
2061;SDS011;11070;51.336;12.340;2022-10-26T05:39:25;11.23;;;8.90;;
2061;SDS011;11070;51.336;12.340;2022-10-26T05:41:50;10.20;;;7.87;;
2061;SDS011;11070;51.336;12.340;2022-10-26T05:44:17;10.90;;;8.50;;
2061;SDS011;11070;51.336;12.340;2022-10-26T05:46:45;13.20;;;7.93;;
2061;SDS011;11070;51.336;12.340;2022-10-26T05:49:11;10.60;;;8.02;;
2061;SDS011;11070;51.336;12.340;2022-10-26T05:51:36;9.60;;;7.50;;
2061;SDS011;11070;51.336;12.340;2022-10-26T05:54:06;10.07;;;8.13;;
2061;SDS011;11070;51.336;12.340;2022-10-26T05:56:36;13.43;;;7.60;;
2061;SDS011;11070;51.336;12.340;2022-10-26T05:59:03;10.02;;;7.70;;
2061;SDS011;11070;51.336;12.340;2022-10-26T06:06:55;8.48;;;6.65;;
2061;SDS011;11070;51.336;12.340;2022-10-26T06:09:23;11.63;;;6.80;;
2061;SDS011;11070;51.336;12.340;2022-10-26T06:11:49;7.23;;;6.40;;
2061;SDS011;11070;51.336;12.340;2022-10-26T06:14:15;11.73;;;7.85;;
2061;SDS011;11070;51.336;12.340;2022-10-26T06:27:45;10.07;;;6.93;;
2061;SDS011;11070;51.336;12.340;2022-10-26T06:30:31;7.20;;;6.18;;
2061;SDS011;11070;51.336;12.340;2022-10-26T06:32:57;7.10;;;6.40;;
2061;SDS011;11070;51.336;12.340;2022-10-26T06:38:11;7.38;;;5.90;;
2061;SDS011;11070;51.336;12.340;2022-10-26T06:40:43;7.18;;;5.93;;
2061;SDS011;11070;51.336;12.340;2022-10-26T06:43:22;6.43;;;5.80;;
2061;SDS011;11070;51.336;12.340;2022-10-26T06:45:53;9.35;;;6.20;;
2061;SDS011;11070;51.336;12.340;2022-10-26T06:48:29;8.10;;;6.03;;
2061;SDS011;11070;51.336;12.340;2022-10-26T06:51:03;9.07;;;5.93;;
2061;SDS011;11070;51.336;12.340;2022-10-26T06:53:33;7.70;;;6.67;;
2061;SDS011;11070;51.336;12.340;2022-10-26T06:56:06;5.75;;;5.22;;
2061;SDS011;11070;51.336;12.340;2022-10-26T06:58:35;7.78;;;5.50;;
2061;SDS011;11070;51.336;12.340;2022-10-26T07:01:03;6.30;;;5.60;;
2061;SDS011;11070;51.336;12.340;2022-10-26T07:03:29;6.40;;;5.80;;
2061;SDS011;11070;51.336;12.340;2022-10-26T07:05:55;5.70;;;5.10;;
2061;SDS011;11070;51.336;12.340;2022-10-26T07:08:20;8.03;;;6.17;;
2061;SDS011;11070;51.336;12.340;2022-10-26T07:10:46;6.80;;;5.37;;
2061;SDS011;11070;51.336;12.340;2022-10-26T07:13:12;7.37;;;6.03;;
2061;SDS011;11070;51.336;12.340;2022-10-26T07:15:38;6.20;;;5.60;;
2061;SDS011;11070;51.336;12.340;2022-10-26T07:18:05;7.40;;;6.30;;
2061;SDS011;11070;51.336;12.340;2022-10-26T07:20:36;9.10;;;6.00;;
2061;SDS011;11070;51.336;12.340;2022-10-26T07:23:03;10.82;;;5.95;;
2061;SDS011;11070;51.336;12.340;2022-10-26T07:25:31;5.20;;;4.80;;
2061;SDS011;11070;51.336;12.340;2022-10-26T07:27:57;5.35;;;4.15;;
2061;SDS011;11070;51.336;12.340;2022-10-26T07:30:24;5.00;;;4.30;;
2061;SDS011;11070;51.336;12.340;2022-10-26T07:32:57;6.13;;;4.50;;
2061;SDS011;11070;51.336;12.340;2022-10-26T07:35:31;13.73;;;4.70;;
2061;SDS011;11070;51.336;12.340;2022-10-26T07:37:57;6.03;;;4.35;;
2061;SDS011;11070;51.336;12.340;2022-10-26T07:40:24;29.20;;;5.82;;
2061;SDS011;11070;51.336;12.340;2022-10-26T07:42:50;4.03;;;3.72;;
2061;SDS011;11070;51.336;12.340;2022-10-26T07:45:17;5.75;;;3.55;;
2061;SDS011;11070;51.336;12.340;2022-10-26T07:47:43;6.47;;;3.95;;
2061;SDS011;11070;51.336;12.340;2022-10-26T07:50:10;4.20;;;3.90;;
2061;SDS011;11070;51.336;12.340;2022-10-26T07:52:36;4.80;;;4.40;;
2061;SDS011;11070;51.336;12.340;2022-10-26T07:55:03;5.22;;;4.10;;
2061;SDS011;11070;51.336;12.340;2022-10-26T07:57:29;4.30;;;4.00;;
2061;SDS011;11070;51.336;12.340;2022-10-26T07:59:55;4.53;;;4.23;;
2061;SDS011;11070;51.336;12.340;2022-10-26T08:02:20;4.37;;;4.07;;
2061;SDS011;11070;51.336;12.340;2022-10-26T08:04:46;6.10;;;4.37;;
2061;SDS011;11070;51.336;12.340;2022-10-26T08:07:11;7.33;;;3.70;;
2061;SDS011;11070;51.336;12.340;2022-10-26T08:09:37;4.87;;;4.23;;
2061;SDS011;11070;51.336;12.340;2022-10-26T08:12:03;7.50;;;3.93;;
2061;SDS011;11070;51.336;12.340;2022-10-26T08:14:28;4.53;;;3.90;;
2061;SDS011;11070;51.336;12.340;2022-10-26T08:16:54;4.50;;;4.10;;
2061;SDS011;11070;51.336;12.340;2022-10-26T08:19:20;4.17;;;3.70;;
2061;SDS011;11070;51.336;12.340;2022-10-26T08:21:45;5.73;;;3.87;;
2061;SDS011;11070;51.336;12.340;2022-10-26T08:24:11;4.73;;;3.40;;
2061;SDS011;11070;51.336;12.340;2022-10-26T08:26:37;5.93;;;3.80;;
2061;SDS011;11070;51.336;12.340;2022-10-26T08:29:03;4.30;;;3.87;;
2061;SDS011;11070;51.336;12.340;2022-10-26T08:31:28;3.73;;;3.30;;
2061;SDS011;11070;51.336;12.340;2022-10-26T08:33:54;3.63;;;3.40;;
2061;SDS011;11070;51.336;12.340;2022-10-26T08:36:22;4.67;;;3.60;;
2061;SDS011;11070;51.336;12.340;2022-10-26T08:38:49;4.40;;;3.20;;
2061;SDS011;11070;51.336;12.340;2022-10-26T08:41:16;3.30;;;3.00;;
2061;SDS011;11070;51.336;12.340;2022-10-26T08:43:46;6.40;;;3.27;;
2061;SDS011;11070;51.336;12.340;2022-10-26T08:46:20;4.70;;;3.40;;
2061;SDS011;11070;51.336;12.340;2022-10-26T08:48:53;4.30;;;3.23;;
2061;SDS011;11070;51.336;12.340;2022-10-26T08:51:23;5.43;;;3.70;;
2061;SDS011;11070;51.336;12.340;2022-10-26T08:54:13;6.87;;;4.00;;
2061;SDS011;11070;51.336;12.340;2022-10-26T08:56:52;4.10;;;3.50;;
2061;SDS011;11070;51.336;12.340;2022-10-26T09:02:02;5.53;;;3.45;;
2061;SDS011;11070;51.336;12.340;2022-10-26T09:04:28;4.47;;;3.90;;
2061;SDS011;11070;51.336;12.340;2022-10-26T09:18:16;3.37;;;3.10;;
2061;SDS011;11070;51.336;12.340;2022-10-26T09:20:54;3.50;;;3.20;;
2061;SDS011;11070;51.336;12.340;2022-10-26T09:23:35;4.07;;;3.10;;
2061;SDS011;11070;51.336;12.340;2022-10-26T09:26:13;3.43;;;3.20;;
2061;SDS011;11070;51.336;12.340;2022-10-26T09:28:40;2.70;;;2.50;;
2061;SDS011;11070;51.336;12.340;2022-10-26T09:31:12;5.17;;;3.00;;
2061;SDS011;11070;51.336;12.340;2022-10-26T09:33:41;2.70;;;2.50;;
2061;SDS011;11070;51.336;12.340;2022-10-26T09:36:11;5.80;;;3.23;;
2061;SDS011;11070;51.336;12.340;2022-10-26T09:39:27;3.30;;;3.10;;
2061;SDS011;11070;51.336;12.340;2022-10-26T09:41:44;4.37;;;3.17;;
2061;SDS011;11070;51.336;12.340;2022-10-26T09:52:55;3.73;;;3.13;;
2061;SDS011;11070;51.336;12.340;2022-10-26T09:55:20;3.90;;;3.47;;
2061;SDS011;11070;51.336;12.340;2022-10-26T09:57:47;6.60;;;3.43;;
2061;SDS011;11070;51.336;12.340;2022-10-26T10:00:17;5.03;;;3.80;;
2061;SDS011;11070;51.336;12.340;2022-10-26T10:02:45;3.57;;;3.27;;
2061;SDS011;11070;51.336;12.340;2022-10-26T10:07:47;6.60;;;3.80;;
2061;SDS011;11070;51.336;12.340;2022-10-26T10:10:20;4.50;;;3.50;;
2061;SDS011;11070;51.336;12.340;2022-10-26T10:12:47;4.70;;;3.67;;
2061;SDS011;11070;51.336;12.340;2022-10-26T10:15:17;4.37;;;3.97;;
2061;SDS011;11070;51.336;12.340;2022-10-26T10:17:49;4.63;;;3.60;;
2061;SDS011;11070;51.336;12.340;2022-10-26T10:20:20;4.45;;;4.05;;
2061;SDS011;11070;51.336;12.340;2022-10-26T10:22:58;7.37;;;3.63;;
2061;SDS011;11070;51.336;12.340;2022-10-26T10:25:35;6.43;;;3.70;;
2061;SDS011;11070;51.336;12.340;2022-10-26T10:28:16;5.13;;;3.70;;
2061;SDS011;11070;51.336;12.340;2022-10-26T10:30:52;4.70;;;3.90;;
2061;SDS011;11070;51.336;12.340;2022-10-26T10:33:21;4.30;;;3.90;;
2061;SDS011;11070;51.336;12.340;2022-10-26T10:35:48;5.23;;;4.03;;
2061;SDS011;11070;51.336;12.340;2022-10-26T10:38:17;5.07;;;4.00;;
2061;SDS011;11070;51.336;12.340;2022-10-26T10:40:48;4.32;;;3.88;;
2061;SDS011;11070;51.336;12.340;2022-10-26T10:43:20;4.82;;;3.83;;
2061;SDS011;11070;51.336;12.340;2022-10-26T10:45:47;5.53;;;3.95;;
2061;SDS011;11070;51.336;12.340;2022-10-26T10:48:17;4.65;;;3.95;;
2061;SDS011;11070;51.336;12.340;2022-10-26T10:51:01;4.55;;;4.15;;
2061;SDS011;11070;51.336;12.340;2022-10-26T10:56:06;4.13;;;3.53;;
2061;SDS011;11070;51.336;12.340;2022-10-26T10:59:03;8.57;;;4.00;;
2061;SDS011;11070;51.336;12.340;2022-10-26T11:07:27;6.90;;;4.25;;
2061;SDS011;11070;51.336;12.340;2022-10-26T11:09:56;5.43;;;3.90;;
2061;SDS011;11070;51.336;12.340;2022-10-26T11:12:30;3.83;;;3.53;;
2061;SDS011;11070;51.336;12.340;2022-10-26T11:15:06;6.53;;;3.87;;
2061;SDS011;11070;51.336;12.340;2022-10-26T11:20:31;4.05;;;3.42;;
2061;SDS011;11070;51.336;12.340;2022-10-26T11:23:15;5.80;;;3.63;;
2061;SDS011;11070;51.336;12.340;2022-10-26T11:28:45;4.73;;;3.10;;
2061;SDS011;11070;51.336;12.340;2022-10-26T11:31:24;3.33;;;3.03;;
2061;SDS011;11070;51.336;12.340;2022-10-26T11:36:48;3.90;;;3.40;;
2061;SDS011;11070;51.336;12.340;2022-10-26T11:39:24;5.10;;;3.30;;
2061;SDS011;11070;51.336;12.340;2022-10-26T11:42:12;7.90;;;3.67;;
2061;SDS011;11070;51.336;12.340;2022-10-26T11:45:08;3.83;;;3.33;;
2061;SDS011;11070;51.336;12.340;2022-10-26T11:47:56;7.87;;;3.20;;
2061;SDS011;11070;51.336;12.340;2022-10-26T11:50:34;4.87;;;3.10;;
2061;SDS011;11070;51.336;12.340;2022-10-26T11:53:17;6.72;;;3.30;;
2061;SDS011;11070;51.336;12.340;2022-10-26T11:55:52;3.47;;;3.17;;
2061;SDS011;11070;51.336;12.340;2022-10-26T11:58:23;6.30;;;3.20;;
2061;SDS011;11070;51.336;12.340;2022-10-26T12:00:52;5.70;;;3.28;;
2061;SDS011;11070;51.336;12.340;2022-10-26T12:03:25;5.35;;;3.00;;
2061;SDS011;11070;51.336;12.340;2022-10-26T12:06:00;3.95;;;2.65;;
2061;SDS011;11070;51.336;12.340;2022-10-26T12:08:26;5.00;;;3.10;;
2061;SDS011;11070;51.336;12.340;2022-10-26T12:11:06;3.35;;;2.80;;
2061;SDS011;11070;51.336;12.340;2022-10-26T12:13:45;3.10;;;2.90;;
2061;SDS011;11070;51.336;12.340;2022-10-26T12:22:12;6.60;;;2.75;;
2061;SDS011;11070;51.336;12.340;2022-10-26T12:24:44;4.05;;;2.90;;
2061;SDS011;11070;51.336;12.340;2022-10-26T12:37:59;3.78;;;3.10;;
2061;SDS011;11070;51.336;12.340;2022-10-26T12:40:43;4.63;;;2.90;;
2061;SDS011;11070;51.336;12.340;2022-10-26T12:45:38;5.68;;;2.80;;
2061;SDS011;11070;51.336;12.340;2022-10-26T12:50:49;4.03;;;2.85;;
2061;SDS011;11070;51.336;12.340;2022-10-26T12:53:16;4.00;;;3.15;;
2061;SDS011;11070;51.336;12.340;2022-10-26T13:01:27;3.40;;;2.67;;
2061;SDS011;11070;51.336;12.340;2022-10-26T13:07:20;3.00;;;2.70;;
2061;SDS011;11070;51.336;12.340;2022-10-26T13:12:29;3.78;;;2.45;;
2061;SDS011;11070;51.336;12.340;2022-10-26T13:15:05;4.33;;;2.77;;
2061;SDS011;11070;51.336;12.340;2022-10-26T13:17:51;2.90;;;2.70;;
2061;SDS011;11070;51.336;12.340;2022-10-26T13:20:34;3.77;;;2.77;;
2061;SDS011;11070;51.336;12.340;2022-10-26T13:23:02;2.73;;;2.53;;
2061;SDS011;11070;51.336;12.340;2022-10-26T13:25:39;4.13;;;2.80;;
2061;SDS011;11070;51.336;12.340;2022-10-26T13:28:06;3.43;;;2.97;;
2061;SDS011;11070;51.336;12.340;2022-10-26T13:30:50;5.93;;;3.28;;
2061;SDS011;11070;51.336;12.340;2022-10-26T13:33:19;3.73;;;3.10;;
2061;SDS011;11070;51.336;12.340;2022-10-26T13:35:48;3.42;;;2.85;;
2061;SDS011;11070;51.336;12.340;2022-10-26T13:38:17;5.35;;;3.13;;
2061;SDS011;11070;51.336;12.340;2022-10-26T13:40:46;5.78;;;2.58;;
2061;SDS011;11070;51.336;12.340;2022-10-26T13:43:18;4.18;;;2.72;;
2061;SDS011;11070;51.336;12.340;2022-10-26T13:45:53;3.67;;;2.60;;
2061;SDS011;11070;51.336;12.340;2022-10-26T13:48:22;6.25;;;3.42;;
2061;SDS011;11070;51.336;12.340;2022-10-26T13:51:03;4.05;;;3.65;;
2061;SDS011;11070;51.336;12.340;2022-10-26T13:53:37;4.57;;;3.50;;
2061;SDS011;11070;51.336;12.340;2022-10-26T13:59:09;5.00;;;3.53;;
2061;SDS011;11070;51.336;12.340;2022-10-26T14:01:36;16.20;;;3.63;;
2061;SDS011;11070;51.336;12.340;2022-10-26T14:04:14;3.87;;;3.57;;
2061;SDS011;11070;51.336;12.340;2022-10-26T14:06:42;6.75;;;3.60;;
2061;SDS011;11070;51.336;12.340;2022-10-26T14:09:15;3.50;;;3.20;;
2061;SDS011;11070;51.336;12.340;2022-10-26T14:11:52;5.80;;;3.38;;
2061;SDS011;11070;51.336;12.340;2022-10-26T14:16:57;4.65;;;4.05;;
2061;SDS011;11070;51.336;12.340;2022-10-26T14:19:25;5.43;;;3.55;;
2061;SDS011;11070;51.336;12.340;2022-10-26T14:21:53;4.28;;;3.60;;
2061;SDS011;11070;51.336;12.340;2022-10-26T14:24:21;3.83;;;3.42;;
2061;SDS011;11070;51.336;12.340;2022-10-26T14:26:48;4.50;;;4.20;;
2061;SDS011;11070;51.336;12.340;2022-10-26T14:29:21;5.13;;;3.80;;
2061;SDS011;11070;51.336;12.340;2022-10-26T14:31:52;5.53;;;3.85;;
2061;SDS011;11070;51.336;12.340;2022-10-26T14:34:21;4.10;;;3.72;;
2061;SDS011;11070;51.336;12.340;2022-10-26T14:36:57;5.97;;;4.25;;
2061;SDS011;11070;51.336;12.340;2022-10-26T14:39:34;4.28;;;3.97;;
2061;SDS011;11070;51.336;12.340;2022-10-26T14:42:25;5.43;;;3.78;;
2061;SDS011;11070;51.336;12.340;2022-10-26T14:44:57;4.28;;;3.92;;
2061;SDS011;11070;51.336;12.340;2022-10-26T14:49:52;4.85;;;4.45;;
2061;SDS011;11070;51.336;12.340;2022-10-26T14:52:21;4.75;;;4.10;;
2061;SDS011;11070;51.336;12.340;2022-10-26T14:57:49;3.67;;;3.28;;
2061;SDS011;11070;51.336;12.340;2022-10-26T15:00:20;4.43;;;3.85;;
2061;SDS011;11070;51.336;12.340;2022-10-26T15:02:51;4.55;;;3.97;;
2061;SDS011;11070;51.336;12.340;2022-10-26T15:05:24;6.25;;;4.03;;
2061;SDS011;11070;51.336;12.340;2022-10-26T15:08:03;5.03;;;4.45;;
2061;SDS011;11070;51.336;12.340;2022-10-26T15:13:10;5.63;;;3.67;;
2061;SDS011;11070;51.336;12.340;2022-10-26T15:15:43;7.20;;;3.95;;
2061;SDS011;11070;51.336;12.340;2022-10-26T15:18:28;4.00;;;3.70;;
2061;SDS011;11070;51.336;12.340;2022-10-26T15:20:57;4.47;;;3.88;;
2061;SDS011;11070;51.336;12.340;2022-10-26T15:23:23;7.68;;;4.15;;
2061;SDS011;11070;51.336;12.340;2022-10-26T15:25:55;7.05;;;4.25;;
2061;SDS011;11070;51.336;12.340;2022-10-26T15:30:57;5.28;;;4.35;;
2061;SDS011;11070;51.336;12.340;2022-10-26T15:33:23;4.65;;;4.25;;
2061;SDS011;11070;51.336;12.340;2022-10-26T15:35:48;4.60;;;4.17;;
2061;SDS011;11070;51.336;12.340;2022-10-26T15:38:14;5.43;;;4.67;;
2061;SDS011;11070;51.336;12.340;2022-10-26T15:40:43;6.40;;;4.43;;
2061;SDS011;11070;51.336;12.340;2022-10-26T15:43:09;6.82;;;4.70;;
2061;SDS011;11070;51.336;12.340;2022-10-26T15:45:41;6.55;;;5.15;;
2061;SDS011;11070;51.336;12.340;2022-10-26T15:48:21;5.32;;;4.93;;
2061;SDS011;11070;51.336;12.340;2022-10-26T15:50:53;4.80;;;4.40;;
2061;SDS011;11070;51.336;12.340;2022-10-26T15:53:23;8.43;;;5.65;;
2061;SDS011;11070;51.336;12.340;2022-10-26T15:55:54;6.90;;;5.72;;
2061;SDS011;11070;51.336;12.340;2022-10-26T15:58:22;7.72;;;5.65;;
2061;SDS011;11070;51.336;12.340;2022-10-26T16:00:48;5.68;;;5.18;;
2061;SDS011;11070;51.336;12.340;2022-10-26T16:03:20;6.33;;;5.20;;
2061;SDS011;11070;51.336;12.340;2022-10-26T16:05:52;6.05;;;5.47;;
2061;SDS011;11070;51.336;12.340;2022-10-26T16:08:25;5.07;;;4.68;;
2061;SDS011;11070;51.336;12.340;2022-10-26T16:10:53;4.95;;;4.45;;
2061;SDS011;11070;51.336;12.340;2022-10-26T16:13:19;12.83;;;5.10;;
2061;SDS011;11070;51.336;12.340;2022-10-26T16:15:45;6.03;;;5.27;;
2061;SDS011;11070;51.336;12.340;2022-10-26T16:18:15;7.00;;;5.75;;
2061;SDS011;11070;51.336;12.340;2022-10-26T16:20:43;9.70;;;6.15;;
2061;SDS011;11070;51.336;12.340;2022-10-26T16:23:10;7.82;;;5.75;;
2061;SDS011;11070;51.336;12.340;2022-10-26T16:25:40;6.90;;;5.60;;
2061;SDS011;11070;51.336;12.340;2022-10-26T16:28:08;8.32;;;5.50;;
2061;SDS011;11070;51.336;12.340;2022-10-26T16:30:36;7.18;;;4.75;;
2061;SDS011;11070;51.336;12.340;2022-10-26T16:33:01;10.13;;;5.40;;
2061;SDS011;11070;51.336;12.340;2022-10-26T16:35:27;9.00;;;5.70;;
2061;SDS011;11070;51.336;12.340;2022-10-26T16:37:53;6.80;;;6.20;;
2061;SDS011;11070;51.336;12.340;2022-10-26T16:40:19;9.40;;;8.60;;
2061;SDS011;11070;51.336;12.340;2022-10-26T16:42:44;12.33;;;8.17;;
2061;SDS011;11070;51.336;12.340;2022-10-26T16:45:10;10.77;;;6.23;;
2061;SDS011;11070;51.336;12.340;2022-10-26T16:47:37;7.97;;;5.82;;
2061;SDS011;11070;51.336;12.340;2022-10-26T16:50:04;8.23;;;6.90;;
2061;SDS011;11070;51.336;12.340;2022-10-26T16:52:34;7.32;;;6.63;;
2061;SDS011;11070;51.336;12.340;2022-10-26T16:55:01;10.00;;;7.60;;
2061;SDS011;11070;51.336;12.340;2022-10-26T16:57:27;9.02;;;8.13;;
2061;SDS011;11070;51.336;12.340;2022-10-26T16:59:53;9.97;;;8.70;;
2061;SDS011;11070;51.336;12.340;2022-10-26T17:02:19;12.17;;;9.60;;
2061;SDS011;11070;51.336;12.340;2022-10-26T17:04:45;12.40;;;10.30;;
2061;SDS011;11070;51.336;12.340;2022-10-26T17:07:10;12.20;;;9.10;;
2061;SDS011;11070;51.336;12.340;2022-10-26T17:09:36;9.93;;;8.93;;
2061;SDS011;11070;51.336;12.340;2022-10-26T17:12:02;13.97;;;9.80;;
2061;SDS011;11070;51.336;12.340;2022-10-26T17:14:28;11.50;;;8.68;;
2061;SDS011;11070;51.336;12.340;2022-10-26T17:16:54;12.73;;;9.60;;
2061;SDS011;11070;51.336;12.340;2022-10-26T17:19:19;10.13;;;8.27;;
2061;SDS011;11070;51.336;12.340;2022-10-26T17:21:45;9.70;;;8.80;;
2061;SDS011;11070;51.336;12.340;2022-10-26T17:24:10;12.10;;;8.90;;